sensor_id;sensor_type;location;lat;lon;timestamp;P1;durP1;ratioP1;P2;durP2;ratioP2
48623;SDS011;34422;45.802;16.114;2023-05-10T00:02:16;11.90;;;7.03;;
48623;SDS011;34422;45.802;16.114;2023-05-10T00:04:42;13.50;;;6.88;;
48623;SDS011;34422;45.802;16.114;2023-05-10T00:07:09;10.93;;;6.65;;
48623;SDS011;34422;45.802;16.114;2023-05-10T00:09:36;10.40;;;6.07;;
48623;SDS011;34422;45.802;16.114;2023-05-10T00:12:03;11.93;;;7.15;;
48623;SDS011;34422;45.802;16.114;2023-05-10T00:14:30;13.13;;;6.70;;
48623;SDS011;34422;45.802;16.114;2023-05-10T00:16:57;11.15;;;7.00;;
48623;SDS011;34422;45.802;16.114;2023-05-10T00:19:23;11.05;;;6.45;;
48623;SDS011;34422;45.802;16.114;2023-05-10T00:21:50;10.40;;;6.10;;
48623;SDS011;34422;45.802;16.114;2023-05-10T00:24:17;11.52;;;6.85;;
48623;SDS011;34422;45.802;16.114;2023-05-10T00:26:43;9.77;;;6.30;;
48623;SDS011;34422;45.802;16.114;2023-05-10T00:29:11;10.07;;;5.80;;
48623;SDS011;34422;45.802;16.114;2023-05-10T00:31:37;10.88;;;6.05;;
48623;SDS011;34422;45.802;16.114;2023-05-10T00:34:04;9.38;;;5.68;;
48623;SDS011;34422;45.802;16.114;2023-05-10T00:36:31;10.18;;;5.47;;
48623;SDS011;34422;45.802;16.114;2023-05-10T00:38:58;8.48;;;4.82;;
48623;SDS011;34422;45.802;16.114;2023-05-10T00:41:25;9.32;;;5.38;;
48623;SDS011;34422;45.802;16.114;2023-05-10T00:43:52;8.93;;;5.40;;
48623;SDS011;34422;45.802;16.114;2023-05-10T00:46:19;8.70;;;5.70;;
48623;SDS011;34422;45.802;16.114;2023-05-10T00:48:45;9.32;;;4.50;;
48623;SDS011;34422;45.802;16.114;2023-05-10T00:51:13;9.57;;;5.68;;
48623;SDS011;34422;45.802;16.114;2023-05-10T00:53:40;11.48;;;5.40;;
48623;SDS011;34422;45.802;16.114;2023-05-10T00:56:07;9.77;;;6.15;;
48623;SDS011;34422;45.802;16.114;2023-05-10T00:58:34;7.60;;;5.30;;
48623;SDS011;34422;45.802;16.114;2023-05-10T01:01:01;11.90;;;5.90;;
48623;SDS011;34422;45.802;16.114;2023-05-10T01:03:28;8.63;;;5.18;;
48623;SDS011;34422;45.802;16.114;2023-05-10T01:05:55;10.65;;;5.85;;
48623;SDS011;34422;45.802;16.114;2023-05-10T01:08:22;10.65;;;6.05;;
48623;SDS011;34422;45.802;16.114;2023-05-10T01:10:49;9.23;;;5.90;;
48623;SDS011;34422;45.802;16.114;2023-05-10T01:16:16;12.23;;;5.95;;
48623;SDS011;34422;45.802;16.114;2023-05-10T01:18:43;9.27;;;5.47;;
48623;SDS011;34422;45.802;16.114;2023-05-10T01:21:17;9.13;;;5.75;;
48623;SDS011;34422;45.802;16.114;2023-05-10T01:29:42;8.60;;;5.47;;
48623;SDS011;34422;45.802;16.114;2023-05-10T01:35:14;10.07;;;5.45;;
48623;SDS011;34422;45.802;16.114;2023-05-10T01:40:32;10.27;;;5.65;;
48623;SDS011;34422;45.802;16.114;2023-05-10T01:43:05;9.70;;;5.47;;
48623;SDS011;34422;45.802;16.114;2023-05-10T01:45:38;9.65;;;5.25;;
48623;SDS011;34422;45.802;16.114;2023-05-10T01:48:13;9.95;;;6.05;;
48623;SDS011;34422;45.802;16.114;2023-05-10T01:50:44;10.90;;;5.70;;
48623;SDS011;34422;45.802;16.114;2023-05-10T01:53:13;8.73;;;5.57;;
48623;SDS011;34422;45.802;16.114;2023-05-10T01:55:46;10.05;;;5.80;;
48623;SDS011;34422;45.802;16.114;2023-05-10T01:58:17;9.18;;;5.60;;
48623;SDS011;34422;45.802;16.114;2023-05-10T02:00:47;11.27;;;5.80;;
48623;SDS011;34422;45.802;16.114;2023-05-10T02:03:16;9.00;;;5.50;;
48623;SDS011;34422;45.802;16.114;2023-05-10T02:05:46;10.80;;;6.18;;
48623;SDS011;34422;45.802;16.114;2023-05-10T02:08:16;13.00;;;5.47;;
48623;SDS011;34422;45.802;16.114;2023-05-10T02:10:44;10.88;;;5.95;;
48623;SDS011;34422;45.802;16.114;2023-05-10T02:13:12;11.52;;;6.40;;
48623;SDS011;34422;45.802;16.114;2023-05-10T02:15:41;11.35;;;6.18;;
48623;SDS011;34422;45.802;16.114;2023-05-10T02:18:09;10.35;;;6.10;;
48623;SDS011;34422;45.802;16.114;2023-05-10T02:20:37;11.95;;;6.32;;
48623;SDS011;34422;45.802;16.114;2023-05-10T02:23:05;11.85;;;5.80;;
48623;SDS011;34422;45.802;16.114;2023-05-10T02:25:34;9.30;;;5.40;;
48623;SDS011;34422;45.802;16.114;2023-05-10T02:28:02;8.27;;;5.10;;
48623;SDS011;34422;45.802;16.114;2023-05-10T02:30:31;10.65;;;6.00;;
48623;SDS011;34422;45.802;16.114;2023-05-10T02:33:00;8.90;;;5.57;;
48623;SDS011;34422;45.802;16.114;2023-05-10T02:35:29;12.30;;;5.22;;
48623;SDS011;34422;45.802;16.114;2023-05-10T02:37:57;7.90;;;4.82;;
48623;SDS011;34422;45.802;16.114;2023-05-10T02:40:27;9.30;;;4.78;;
48623;SDS011;34422;45.802;16.114;2023-05-10T02:42:54;8.68;;;4.90;;
48623;SDS011;34422;45.802;16.114;2023-05-10T02:45:24;15.00;;;5.55;;
48623;SDS011;34422;45.802;16.114;2023-05-10T02:47:55;9.25;;;5.30;;
48623;SDS011;34422;45.802;16.114;2023-05-10T02:50:23;9.48;;;4.82;;
48623;SDS011;34422;45.802;16.114;2023-05-10T02:52:54;8.82;;;5.40;;
48623;SDS011;34422;45.802;16.114;2023-05-10T02:55:26;9.52;;;5.50;;
48623;SDS011;34422;45.802;16.114;2023-05-10T02:57:59;9.77;;;5.57;;
48623;SDS011;34422;45.802;16.114;2023-05-10T03:00:27;9.23;;;5.40;;
48623;SDS011;34422;45.802;16.114;2023-05-10T03:02:55;8.77;;;5.45;;
48623;SDS011;34422;45.802;16.114;2023-05-10T03:05:21;8.63;;;5.45;;
48623;SDS011;34422;45.802;16.114;2023-05-10T03:07:48;8.98;;;4.90;;
48623;SDS011;34422;45.802;16.114;2023-05-10T03:10:16;9.38;;;5.88;;
48623;SDS011;34422;45.802;16.114;2023-05-10T03:15:41;8.70;;;4.85;;
48623;SDS011;34422;45.802;16.114;2023-05-10T03:18:29;9.70;;;4.97;;
48623;SDS011;34422;45.802;16.114;2023-05-10T03:21:02;7.90;;;4.95;;
48623;SDS011;34422;45.802;16.114;2023-05-10T03:23:35;11.07;;;5.43;;
48623;SDS011;34422;45.802;16.114;2023-05-10T03:26:07;7.88;;;4.80;;
48623;SDS011;34422;45.802;16.114;2023-05-10T03:28:34;9.10;;;5.25;;
48623;SDS011;34422;45.802;16.114;2023-05-10T03:31:02;9.27;;;5.60;;
48623;SDS011;34422;45.802;16.114;2023-05-10T03:33:31;9.05;;;4.85;;
48623;SDS011;34422;45.802;16.114;2023-05-10T03:35:59;7.88;;;4.80;;
48623;SDS011;34422;45.802;16.114;2023-05-10T03:38:25;9.13;;;5.30;;
48623;SDS011;34422;45.802;16.114;2023-05-10T03:40:52;8.55;;;5.22;;
48623;SDS011;34422;45.802;16.114;2023-05-10T03:43:19;13.02;;;6.13;;
48623;SDS011;34422;45.802;16.114;2023-05-10T03:45:46;12.35;;;5.32;;
48623;SDS011;34422;45.802;16.114;2023-05-10T03:48:13;9.38;;;5.35;;
48623;SDS011;34422;45.802;16.114;2023-05-10T03:50:40;10.02;;;4.95;;
48623;SDS011;34422;45.802;16.114;2023-05-10T03:53:06;9.95;;;5.68;;
48623;SDS011;34422;45.802;16.114;2023-05-10T03:55:33;10.20;;;5.32;;
48623;SDS011;34422;45.802;16.114;2023-05-10T03:58:02;9.25;;;5.40;;
48623;SDS011;34422;45.802;16.114;2023-05-10T04:00:29;7.53;;;4.63;;
48623;SDS011;34422;45.802;16.114;2023-05-10T04:02:56;7.45;;;5.10;;
48623;SDS011;34422;45.802;16.114;2023-05-10T04:05:23;8.50;;;5.53;;
48623;SDS011;34422;45.802;16.114;2023-05-10T04:07:50;9.43;;;5.28;;
48623;SDS011;34422;45.802;16.114;2023-05-10T04:10:17;9.95;;;5.65;;
48623;SDS011;34422;45.802;16.114;2023-05-10T04:12:44;11.40;;;5.57;;
48623;SDS011;34422;45.802;16.114;2023-05-10T04:15:11;12.88;;;5.82;;
48623;SDS011;34422;45.802;16.114;2023-05-10T04:17:38;9.90;;;5.53;;
48623;SDS011;34422;45.802;16.114;2023-05-10T04:20:05;11.38;;;5.10;;
48623;SDS011;34422;45.802;16.114;2023-05-10T04:22:32;13.70;;;6.68;;
48623;SDS011;34422;45.802;16.114;2023-05-10T04:24:59;10.48;;;6.10;;
48623;SDS011;34422;45.802;16.114;2023-05-10T04:27:26;14.30;;;6.22;;
48623;SDS011;34422;45.802;16.114;2023-05-10T04:29:53;10.40;;;6.35;;
48623;SDS011;34422;45.802;16.114;2023-05-10T04:32:20;9.23;;;5.95;;
48623;SDS011;34422;45.802;16.114;2023-05-10T04:34:47;11.18;;;6.05;;
48623;SDS011;34422;45.802;16.114;2023-05-10T04:37:14;11.27;;;6.10;;
48623;SDS011;34422;45.802;16.114;2023-05-10T04:39:41;10.30;;;6.35;;
48623;SDS011;34422;45.802;16.114;2023-05-10T04:42:07;12.02;;;6.68;;
48623;SDS011;34422;45.802;16.114;2023-05-10T04:44:34;10.93;;;6.57;;
48623;SDS011;34422;45.802;16.114;2023-05-10T04:47:01;13.00;;;6.75;;
48623;SDS011;34422;45.802;16.114;2023-05-10T04:49:29;9.55;;;6.53;;
48623;SDS011;34422;45.802;16.114;2023-05-10T04:51:56;10.68;;;6.30;;
48623;SDS011;34422;45.802;16.114;2023-05-10T04:54:23;8.85;;;5.82;;
48623;SDS011;34422;45.802;16.114;2023-05-10T04:56:50;10.57;;;6.50;;
48623;SDS011;34422;45.802;16.114;2023-05-10T04:59:17;9.40;;;5.57;;
48623;SDS011;34422;45.802;16.114;2023-05-10T05:01:44;9.90;;;6.75;;
48623;SDS011;34422;45.802;16.114;2023-05-10T05:04:10;13.05;;;7.15;;
48623;SDS011;34422;45.802;16.114;2023-05-10T05:06:37;10.05;;;6.85;;
48623;SDS011;34422;45.802;16.114;2023-05-10T05:09:04;10.60;;;5.95;;
48623;SDS011;34422;45.802;16.114;2023-05-10T05:11:31;10.68;;;6.25;;
48623;SDS011;34422;45.802;16.114;2023-05-10T05:13:58;10.20;;;6.47;;
48623;SDS011;34422;45.802;16.114;2023-05-10T05:16:25;10.27;;;6.88;;
48623;SDS011;34422;45.802;16.114;2023-05-10T05:18:52;9.52;;;6.40;;
48623;SDS011;34422;45.802;16.114;2023-05-10T05:21:19;11.23;;;6.88;;
48623;SDS011;34422;45.802;16.114;2023-05-10T05:23:47;12.52;;;6.78;;
48623;SDS011;34422;45.802;16.114;2023-05-10T05:26:13;11.07;;;6.97;;
48623;SDS011;34422;45.802;16.114;2023-05-10T05:28:41;10.98;;;6.40;;
48623;SDS011;34422;45.802;16.114;2023-05-10T05:31:10;13.07;;;7.25;;
48623;SDS011;34422;45.802;16.114;2023-05-10T05:33:36;11.32;;;7.35;;
48623;SDS011;34422;45.802;16.114;2023-05-10T05:36:04;12.27;;;7.20;;
48623;SDS011;34422;45.802;16.114;2023-05-10T05:38:31;11.50;;;7.47;;
48623;SDS011;34422;45.802;16.114;2023-05-10T05:40:58;12.10;;;7.40;;
48623;SDS011;34422;45.802;16.114;2023-05-10T05:43:25;13.02;;;7.75;;
48623;SDS011;34422;45.802;16.114;2023-05-10T05:45:52;12.90;;;6.88;;
48623;SDS011;34422;45.802;16.114;2023-05-10T05:48:20;13.35;;;6.97;;
48623;SDS011;34422;45.802;16.114;2023-05-10T05:50:47;10.38;;;7.13;;
48623;SDS011;34422;45.802;16.114;2023-05-10T05:53:13;15.30;;;6.88;;
48623;SDS011;34422;45.802;16.114;2023-05-10T05:55:45;11.95;;;6.80;;
48623;SDS011;34422;45.802;16.114;2023-05-10T05:58:17;12.60;;;6.85;;
48623;SDS011;34422;45.802;16.114;2023-05-10T06:00:44;13.65;;;7.60;;
48623;SDS011;34422;45.802;16.114;2023-05-10T06:03:11;11.43;;;6.93;;
48623;SDS011;34422;45.802;16.114;2023-05-10T06:05:38;10.95;;;7.20;;
48623;SDS011;34422;45.802;16.114;2023-05-10T06:08:05;9.48;;;6.57;;
48623;SDS011;34422;45.802;16.114;2023-05-10T06:10:31;9.13;;;6.32;;
48623;SDS011;34422;45.802;16.114;2023-05-10T06:12:58;12.27;;;7.30;;
48623;SDS011;34422;45.802;16.114;2023-05-10T06:15:25;10.02;;;6.85;;
48623;SDS011;34422;45.802;16.114;2023-05-10T06:17:52;10.90;;;6.47;;
48623;SDS011;34422;45.802;16.114;2023-05-10T06:20:19;10.98;;;6.90;;
48623;SDS011;34422;45.802;16.114;2023-05-10T06:22:46;11.02;;;7.00;;
48623;SDS011;34422;45.802;16.114;2023-05-10T06:25:16;12.15;;;7.25;;
48623;SDS011;34422;45.802;16.114;2023-05-10T06:27:45;10.45;;;7.57;;
48623;SDS011;34422;45.802;16.114;2023-05-10T06:30:14;13.98;;;7.35;;
48623;SDS011;34422;45.802;16.114;2023-05-10T06:32:41;14.98;;;6.93;;
48623;SDS011;34422;45.802;16.114;2023-05-10T06:35:10;11.18;;;7.28;;
48623;SDS011;34422;45.802;16.114;2023-05-10T06:37:37;11.48;;;7.10;;
48623;SDS011;34422;45.802;16.114;2023-05-10T06:40:04;14.55;;;7.88;;
48623;SDS011;34422;45.802;16.114;2023-05-10T06:42:31;17.30;;;7.28;;
48623;SDS011;34422;45.802;16.114;2023-05-10T06:45:01;11.15;;;7.25;;
48623;SDS011;34422;45.802;16.114;2023-05-10T06:47:28;11.15;;;6.75;;
48623;SDS011;34422;45.802;16.114;2023-05-10T06:49:55;11.88;;;7.18;;
48623;SDS011;34422;45.802;16.114;2023-05-10T06:52:22;11.23;;;7.07;;
48623;SDS011;34422;45.802;16.114;2023-05-10T06:54:49;11.13;;;7.50;;
48623;SDS011;34422;45.802;16.114;2023-05-10T06:57:16;9.43;;;6.55;;
48623;SDS011;34422;45.802;16.114;2023-05-10T06:59:44;11.63;;;6.90;;
48623;SDS011;34422;45.802;16.114;2023-05-10T07:02:11;13.20;;;7.13;;
48623;SDS011;34422;45.802;16.114;2023-05-10T07:04:37;10.00;;;6.47;;
48623;SDS011;34422;45.802;16.114;2023-05-10T07:07:04;10.57;;;6.53;;
48623;SDS011;34422;45.802;16.114;2023-05-10T07:09:31;13.50;;;7.47;;
48623;SDS011;34422;45.802;16.114;2023-05-10T07:11:58;11.45;;;7.18;;
48623;SDS011;34422;45.802;16.114;2023-05-10T07:14:25;12.48;;;7.35;;
48623;SDS011;34422;45.802;16.114;2023-05-10T07:16:52;10.60;;;6.85;;
48623;SDS011;34422;45.802;16.114;2023-05-10T07:19:19;9.02;;;6.45;;
48623;SDS011;34422;45.802;16.114;2023-05-10T07:21:50;11.57;;;7.30;;
48623;SDS011;34422;45.802;16.114;2023-05-10T07:24:18;11.63;;;7.72;;
48623;SDS011;34422;45.802;16.114;2023-05-10T07:26:45;10.10;;;7.05;;
48623;SDS011;34422;45.802;16.114;2023-05-10T07:29:12;9.20;;;6.75;;
48623;SDS011;34422;45.802;16.114;2023-05-10T07:31:39;9.40;;;6.72;;
48623;SDS011;34422;45.802;16.114;2023-05-10T07:34:08;11.02;;;6.53;;
48623;SDS011;34422;45.802;16.114;2023-05-10T07:36:35;9.45;;;6.50;;
48623;SDS011;34422;45.802;16.114;2023-05-10T07:39:02;11.38;;;6.72;;
48623;SDS011;34422;45.802;16.114;2023-05-10T07:41:29;8.70;;;6.68;;
48623;SDS011;34422;45.802;16.114;2023-05-10T07:43:56;11.20;;;7.32;;
48623;SDS011;34422;45.802;16.114;2023-05-10T07:46:23;9.10;;;6.53;;
48623;SDS011;34422;45.802;16.114;2023-05-10T07:48:49;11.07;;;7.03;;
48623;SDS011;34422;45.802;16.114;2023-05-10T07:51:16;8.85;;;6.60;;
48623;SDS011;34422;45.802;16.114;2023-05-10T07:53:43;8.85;;;6.43;;
48623;SDS011;34422;45.802;16.114;2023-05-10T07:56:23;9.32;;;6.65;;
48623;SDS011;34422;45.802;16.114;2023-05-10T07:58:53;10.48;;;6.55;;
48623;SDS011;34422;45.802;16.114;2023-05-10T08:01:20;10.35;;;6.63;;
48623;SDS011;34422;45.802;16.114;2023-05-10T08:03:48;10.00;;;7.03;;
48623;SDS011;34422;45.802;16.114;2023-05-10T08:06:16;10.95;;;6.72;;
48623;SDS011;34422;45.802;16.114;2023-05-10T08:08:44;9.55;;;6.28;;
48623;SDS011;34422;45.802;16.114;2023-05-10T08:14:08;10.38;;;5.82;;
48623;SDS011;34422;45.802;16.114;2023-05-10T08:16:35;8.60;;;5.97;;
48623;SDS011;34422;45.802;16.114;2023-05-10T08:19:02;9.13;;;5.93;;
48623;SDS011;34422;45.802;16.114;2023-05-10T08:21:29;9.60;;;6.82;;
48623;SDS011;34422;45.802;16.114;2023-05-10T08:23:57;8.88;;;6.47;;
48623;SDS011;34422;45.802;16.114;2023-05-10T08:26:24;9.20;;;6.78;;
48623;SDS011;34422;45.802;16.114;2023-05-10T08:28:51;10.48;;;7.15;;
48623;SDS011;34422;45.802;16.114;2023-05-10T08:31:18;9.80;;;6.38;;
48623;SDS011;34422;45.802;16.114;2023-05-10T08:33:45;10.77;;;6.80;;
48623;SDS011;34422;45.802;16.114;2023-05-10T08:36:11;10.45;;;6.20;;
48623;SDS011;34422;45.802;16.114;2023-05-10T08:38:40;11.02;;;7.40;;
48623;SDS011;34422;45.802;16.114;2023-05-10T08:41:07;9.80;;;6.28;;
48623;SDS011;34422;45.802;16.114;2023-05-10T08:43:34;10.80;;;6.95;;
48623;SDS011;34422;45.802;16.114;2023-05-10T08:46:02;9.77;;;6.88;;
48623;SDS011;34422;45.802;16.114;2023-05-10T08:51:00;9.00;;;6.55;;
48623;SDS011;34422;45.802;16.114;2023-05-10T08:53:42;10.38;;;7.15;;
48623;SDS011;34422;45.802;16.114;2023-05-10T08:56:23;9.13;;;6.70;;
48623;SDS011;34422;45.802;16.114;2023-05-10T08:58:50;10.18;;;6.30;;
48623;SDS011;34422;45.802;16.114;2023-05-10T09:01:17;8.45;;;6.38;;
48623;SDS011;34422;45.802;16.114;2023-05-10T09:03:46;8.68;;;6.30;;
48623;SDS011;34422;45.802;16.114;2023-05-10T09:06:14;8.75;;;5.55;;
48623;SDS011;34422;45.802;16.114;2023-05-10T09:08:41;8.20;;;5.45;;
48623;SDS011;34422;45.802;16.114;2023-05-10T09:11:09;10.07;;;6.65;;
48623;SDS011;34422;45.802;16.114;2023-05-10T09:13:38;8.85;;;6.32;;
48623;SDS011;34422;45.802;16.114;2023-05-10T09:16:05;10.52;;;6.10;;
48623;SDS011;34422;45.802;16.114;2023-05-10T09:18:32;10.32;;;6.53;;
48623;SDS011;34422;45.802;16.114;2023-05-10T09:20:59;7.97;;;5.85;;
48623;SDS011;34422;45.802;16.114;2023-05-10T09:23:26;11.63;;;6.38;;
48623;SDS011;34422;45.802;16.114;2023-05-10T09:26:04;8.82;;;5.93;;
48623;SDS011;34422;45.802;16.114;2023-05-10T09:28:49;10.68;;;6.45;;
48623;SDS011;34422;45.802;16.114;2023-05-10T09:31:18;11.40;;;6.22;;
48623;SDS011;34422;45.802;16.114;2023-05-10T09:33:48;8.93;;;6.40;;
48623;SDS011;34422;45.802;16.114;2023-05-10T09:36:15;9.52;;;6.28;;
48623;SDS011;34422;45.802;16.114;2023-05-10T09:41:21;11.23;;;7.30;;
48623;SDS011;34422;45.802;16.114;2023-05-10T09:43:49;9.52;;;6.32;;
48623;SDS011;34422;45.802;16.114;2023-05-10T09:46:16;10.82;;;6.20;;
48623;SDS011;34422;45.802;16.114;2023-05-10T09:48:44;8.38;;;6.00;;
48623;SDS011;34422;45.802;16.114;2023-05-10T09:51:23;12.65;;;6.55;;
48623;SDS011;34422;45.802;16.114;2023-05-10T09:56:37;7.93;;;5.68;;
48623;SDS011;34422;45.802;16.114;2023-05-10T09:59:07;7.95;;;5.88;;
48623;SDS011;34422;45.802;16.114;2023-05-10T10:01:37;8.73;;;6.47;;
48623;SDS011;34422;45.802;16.114;2023-05-10T10:04:05;9.55;;;5.65;;
48623;SDS011;34422;45.802;16.114;2023-05-10T10:06:39;9.00;;;5.43;;
48623;SDS011;34422;45.802;16.114;2023-05-10T10:09:07;9.70;;;5.90;;
48623;SDS011;34422;45.802;16.114;2023-05-10T10:11:37;9.70;;;5.97;;
48623;SDS011;34422;45.802;16.114;2023-05-10T10:14:05;10.45;;;5.82;;
48623;SDS011;34422;45.802;16.114;2023-05-10T10:16:32;9.32;;;5.53;;
48623;SDS011;34422;45.802;16.114;2023-05-10T10:18:59;8.75;;;5.35;;
48623;SDS011;34422;45.802;16.114;2023-05-10T10:21:27;8.65;;;4.72;;
48623;SDS011;34422;45.802;16.114;2023-05-10T10:23:54;8.02;;;4.95;;
48623;SDS011;34422;45.802;16.114;2023-05-10T10:26:20;9.10;;;4.90;;
48623;SDS011;34422;45.802;16.114;2023-05-10T10:28:54;7.85;;;4.80;;
48623;SDS011;34422;45.802;16.114;2023-05-10T10:34:29;6.53;;;4.43;;
48623;SDS011;34422;45.802;16.114;2023-05-10T10:36:58;7.78;;;4.38;;
48623;SDS011;34422;45.802;16.114;2023-05-10T10:39:30;10.85;;;4.68;;
48623;SDS011;34422;45.802;16.114;2023-05-10T10:41:58;6.47;;;4.30;;
48623;SDS011;34422;45.802;16.114;2023-05-10T10:52:27;8.23;;;5.00;;
48623;SDS011;34422;45.802;16.114;2023-05-10T10:55:10;10.52;;;4.72;;
48623;SDS011;34422;45.802;16.114;2023-05-10T10:57:48;8.90;;;4.57;;
48623;SDS011;34422;45.802;16.114;2023-05-10T11:08:18;12.38;;;5.18;;
48623;SDS011;34422;45.802;16.114;2023-05-10T11:14:02;6.20;;;3.85;;
48623;SDS011;34422;45.802;16.114;2023-05-10T11:16:30;7.57;;;4.60;;
48623;SDS011;34422;45.802;16.114;2023-05-10T11:19:11;8.63;;;4.95;;
48623;SDS011;34422;45.802;16.114;2023-05-10T11:21:49;8.88;;;5.95;;
48623;SDS011;34422;45.802;16.114;2023-05-10T11:24:19;7.95;;;5.30;;
48623;SDS011;34422;45.802;16.114;2023-05-10T11:26:48;6.88;;;4.80;;
48623;SDS011;34422;45.802;16.114;2023-05-10T11:29:16;8.85;;;4.88;;
48623;SDS011;34422;45.802;16.114;2023-05-10T11:31:44;6.63;;;4.72;;
48623;SDS011;34422;45.802;16.114;2023-05-10T11:34:12;9.00;;;4.47;;
48623;SDS011;34422;45.802;16.114;2023-05-10T11:36:54;6.72;;;4.22;;
48623;SDS011;34422;45.802;16.114;2023-05-10T11:39:25;7.18;;;4.60;;
48623;SDS011;34422;45.802;16.114;2023-05-10T11:41:54;7.05;;;4.53;;
48623;SDS011;34422;45.802;16.114;2023-05-10T11:44:21;8.75;;;4.70;;
48623;SDS011;34422;45.802;16.114;2023-05-10T11:46:48;11.68;;;5.00;;
48623;SDS011;34422;45.802;16.114;2023-05-10T11:49:15;7.38;;;4.60;;
48623;SDS011;34422;45.802;16.114;2023-05-10T11:51:42;7.10;;;4.43;;
48623;SDS011;34422;45.802;16.114;2023-05-10T11:54:10;9.18;;;4.63;;
48623;SDS011;34422;45.802;16.114;2023-05-10T11:56:40;5.78;;;3.90;;
48623;SDS011;34422;45.802;16.114;2023-05-10T11:59:07;5.70;;;3.60;;
48623;SDS011;34422;45.802;16.114;2023-05-10T12:01:34;6.78;;;3.92;;
48623;SDS011;34422;45.802;16.114;2023-05-10T12:04:02;7.70;;;3.67;;
48623;SDS011;34422;45.802;16.114;2023-05-10T12:06:30;5.18;;;3.58;;
48623;SDS011;34422;45.802;16.114;2023-05-10T12:08:58;7.45;;;3.50;;
48623;SDS011;34422;45.802;16.114;2023-05-10T12:11:26;6.47;;;3.92;;
48623;SDS011;34422;45.802;16.114;2023-05-10T12:13:54;8.70;;;4.15;;
48623;SDS011;34422;45.802;16.114;2023-05-10T12:16:23;6.53;;;3.70;;
48623;SDS011;34422;45.802;16.114;2023-05-10T12:18:51;7.53;;;3.92;;
48623;SDS011;34422;45.802;16.114;2023-05-10T12:21:20;5.53;;;3.90;;
48623;SDS011;34422;45.802;16.114;2023-05-10T12:23:52;9.93;;;4.30;;
48623;SDS011;34422;45.802;16.114;2023-05-10T12:26:23;5.85;;;3.78;;
48623;SDS011;34422;45.802;16.114;2023-05-10T12:28:53;7.53;;;3.78;;
48623;SDS011;34422;45.802;16.114;2023-05-10T12:31:20;5.65;;;3.60;;
48623;SDS011;34422;45.802;16.114;2023-05-10T12:33:47;6.30;;;3.33;;
48623;SDS011;34422;45.802;16.114;2023-05-10T12:36:16;6.95;;;3.65;;
48623;SDS011;34422;45.802;16.114;2023-05-10T12:38:44;6.88;;;3.90;;
48623;SDS011;34422;45.802;16.114;2023-05-10T12:46:16;5.07;;;3.40;;
48623;SDS011;34422;45.802;16.114;2023-05-10T12:48:44;6.47;;;4.15;;
48623;SDS011;34422;45.802;16.114;2023-05-10T12:51:12;6.75;;;3.92;;
48623;SDS011;34422;45.802;16.114;2023-05-10T12:53:41;7.90;;;3.83;;
48623;SDS011;34422;45.802;16.114;2023-05-10T12:56:09;5.18;;;3.25;;
48623;SDS011;34422;45.802;16.114;2023-05-10T12:58:36;7.78;;;3.92;;
48623;SDS011;34422;45.802;16.114;2023-05-10T13:01:02;6.80;;;3.92;;
48623;SDS011;34422;45.802;16.114;2023-05-10T13:03:30;5.55;;;3.13;;
48623;SDS011;34422;45.802;16.114;2023-05-10T13:05:57;7.68;;;3.88;;
48623;SDS011;34422;45.802;16.114;2023-05-10T13:08:24;6.05;;;3.90;;
48623;SDS011;34422;45.802;16.114;2023-05-10T13:10:51;7.35;;;3.95;;
48623;SDS011;34422;45.802;16.114;2023-05-10T13:13:18;5.90;;;3.38;;
48623;SDS011;34422;45.802;16.114;2023-05-10T13:15:45;5.60;;;3.20;;
48623;SDS011;34422;45.802;16.114;2023-05-10T13:18:12;6.68;;;4.57;;
48623;SDS011;34422;45.802;16.114;2023-05-10T13:20:38;7.28;;;4.40;;
48623;SDS011;34422;45.802;16.114;2023-05-10T13:23:05;6.25;;;3.90;;
48623;SDS011;34422;45.802;16.114;2023-05-10T13:25:32;5.20;;;3.53;;
48623;SDS011;34422;45.802;16.114;2023-05-10T13:28:00;5.88;;;3.67;;
48623;SDS011;34422;45.802;16.114;2023-05-10T13:30:27;5.22;;;3.40;;
48623;SDS011;34422;45.802;16.114;2023-05-10T13:32:55;7.60;;;3.70;;
48623;SDS011;34422;45.802;16.114;2023-05-10T13:35:22;6.78;;;4.00;;
48623;SDS011;34422;45.802;16.114;2023-05-10T13:37:49;6.43;;;3.70;;
48623;SDS011;34422;45.802;16.114;2023-05-10T13:40:15;5.30;;;3.00;;
48623;SDS011;34422;45.802;16.114;2023-05-10T13:42:42;5.88;;;4.00;;
48623;SDS011;34422;45.802;16.114;2023-05-10T13:45:09;7.68;;;4.22;;
48623;SDS011;34422;45.802;16.114;2023-05-10T13:47:38;8.88;;;3.67;;
48623;SDS011;34422;45.802;16.114;2023-05-10T13:50:05;7.35;;;3.60;;
48623;SDS011;34422;45.802;16.114;2023-05-10T13:52:33;7.15;;;3.85;;
48623;SDS011;34422;45.802;16.114;2023-05-10T13:54:59;7.00;;;3.97;;
48623;SDS011;34422;45.802;16.114;2023-05-10T13:57:27;6.30;;;3.75;;
48623;SDS011;34422;45.802;16.114;2023-05-10T13:59:55;7.70;;;3.80;;
48623;SDS011;34422;45.802;16.114;2023-05-10T14:02:23;6.53;;;4.22;;
48623;SDS011;34422;45.802;16.114;2023-05-10T14:04:50;5.88;;;3.60;;
48623;SDS011;34422;45.802;16.114;2023-05-10T14:07:17;9.93;;;3.88;;
48623;SDS011;34422;45.802;16.114;2023-05-10T14:09:44;6.50;;;3.88;;
48623;SDS011;34422;45.802;16.114;2023-05-10T14:12:12;8.63;;;4.20;;
48623;SDS011;34422;45.802;16.114;2023-05-10T14:14:41;10.63;;;5.55;;
48623;SDS011;34422;45.802;16.114;2023-05-10T14:17:07;6.90;;;3.95;;
48623;SDS011;34422;45.802;16.114;2023-05-10T14:19:34;11.00;;;3.95;;
48623;SDS011;34422;45.802;16.114;2023-05-10T14:22:01;6.30;;;3.80;;
48623;SDS011;34422;45.802;16.114;2023-05-10T14:24:29;8.93;;;4.43;;
48623;SDS011;34422;45.802;16.114;2023-05-10T14:26:55;5.45;;;3.30;;
48623;SDS011;34422;45.802;16.114;2023-05-10T14:29:22;7.40;;;4.47;;
48623;SDS011;34422;45.802;16.114;2023-05-10T14:31:49;5.90;;;3.95;;
48623;SDS011;34422;45.802;16.114;2023-05-10T14:34:17;8.10;;;3.88;;
48623;SDS011;34422;45.802;16.114;2023-05-10T14:36:44;7.47;;;4.05;;
48623;SDS011;34422;45.802;16.114;2023-05-10T14:39:11;6.32;;;3.95;;
48623;SDS011;34422;45.802;16.114;2023-05-10T14:41:39;9.43;;;6.28;;
48623;SDS011;34422;45.802;16.114;2023-05-10T14:44:10;7.27;;;4.27;;
48623;SDS011;34422;45.802;16.114;2023-05-10T14:46:37;6.22;;;4.03;;
48623;SDS011;34422;45.802;16.114;2023-05-10T14:49:05;6.25;;;4.10;;
48623;SDS011;34422;45.802;16.114;2023-05-10T14:51:31;8.10;;;4.22;;
48623;SDS011;34422;45.802;16.114;2023-05-10T14:53:58;6.07;;;3.80;;
48623;SDS011;34422;45.802;16.114;2023-05-10T14:56:25;8.95;;;4.50;;
48623;SDS011;34422;45.802;16.114;2023-05-10T14:58:52;6.05;;;3.97;;
48623;SDS011;34422;45.802;16.114;2023-05-10T15:01:19;7.65;;;4.18;;
48623;SDS011;34422;45.802;16.114;2023-05-10T15:03:46;10.30;;;4.63;;
48623;SDS011;34422;45.802;16.114;2023-05-10T15:06:13;12.05;;;4.63;;
48623;SDS011;34422;45.802;16.114;2023-05-10T15:08:41;7.03;;;4.32;;
48623;SDS011;34422;45.802;16.114;2023-05-10T15:11:08;6.22;;;3.70;;
48623;SDS011;34422;45.802;16.114;2023-05-10T15:13:35;12.20;;;5.35;;
48623;SDS011;34422;45.802;16.114;2023-05-10T15:16:02;6.32;;;4.10;;
48623;SDS011;34422;45.802;16.114;2023-05-10T15:18:28;5.88;;;3.63;;
48623;SDS011;34422;45.802;16.114;2023-05-10T15:20:55;6.50;;;4.03;;
48623;SDS011;34422;45.802;16.114;2023-05-10T15:23:23;8.23;;;3.92;;
48623;SDS011;34422;45.802;16.114;2023-05-10T15:25:49;6.05;;;4.03;;
48623;SDS011;34422;45.802;16.114;2023-05-10T15:28:16;6.00;;;4.45;;
48623;SDS011;34422;45.802;16.114;2023-05-10T15:30:43;5.88;;;4.00;;